Time;durP1;ratioP1;P1;durP2;ratioP2;P2;SDS_P1;SDS_P2;PMS_P1;PMS_P2;Temp;Humidity;BMP_temperature;BMP_pressure;BME280_temperature;BME280_humidity;BME280_pressure;Samples;Min_cycle;Max_cycle;Signal;HPM_P1;HPM_P2
2021/03/24 00:02:04;;;;;;;30.90;20.40;;;1.10;99.90;;;;;;4992832;28;20451;-74
2021/03/24 00:04:30;;;;;;;32.87;20.97;;;1.00;99.90;;;;;;4992454;28;21029;-74
2021/03/24 00:06:57;;;;;;;40.90;22.30;;;0.80;99.90;;;;;;4992988;28;20558;-74
2021/03/24 00:09:23;;;;;;;33.70;21.57;;;0.80;99.90;;;;;;4992700;28;20527;-74
2021/03/24 00:11:49;;;;;;;33.13;19.87;;;0.80;99.90;;;;;;4992889;28;20541;-74
2021/03/24 00:14:17;;;;;;;29.40;19.87;;;0.70;99.90;;;;;;4992975;28;20447;-73
2021/03/24 00:16:43;;;;;;;31.10;19.07;;;0.80;99.90;;;;;;4992739;28;20553;-74
2021/03/24 00:19:10;;;;;;;34.70;20.47;;;0.80;99.90;;;;;;4992827;28;20492;-73
2021/03/24 00:21:36;;;;;;;37.53;22.23;;;0.90;99.90;;;;;;4992473;28;20493;-74
2021/03/24 00:24:03;;;;;;;31.40;20.20;;;0.80;99.90;;;;;;4992604;28;20573;-74
2021/03/24 00:26:29;;;;;;;36.00;20.97;;;0.90;99.90;;;;;;4992889;28;20549;-73
2021/03/24 00:28:56;;;;;;;34.27;22.00;;;0.80;99.90;;;;;;4992576;28;21064;-74
2021/03/24 00:31:23;;;;;;;31.53;20.53;;;0.80;99.90;;;;;;4992586;28;20574;-74
2021/03/24 00:33:50;;;;;;;37.67;21.67;;;0.90;99.90;;;;;;4992329;28;20541;-74
2021/03/24 00:36:16;;;;;;;28.73;20.13;;;1.00;99.90;;;;;;4992494;28;20566;-73
2021/03/24 00:38:43;;;;;;;33.13;20.93;;;1.00;99.90;;;;;;4992245;28;20602;-73
2021/03/24 00:41:09;;;;;;;27.63;18.90;;;1.00;99.90;;;;;;4991776;28;21020;-75
2021/03/24 00:43:36;;;;;;;28.43;18.70;;;1.00;99.90;;;;;;4992242;28;20577;-74
2021/03/24 00:46:03;;;;;;;27.37;19.83;;;0.90;99.90;;;;;;4992268;28;20578;-74
2021/03/24 00:48:32;;;;;;;30.73;18.90;;;0.80;99.90;;;;;;4992377;28;20541;-74
2021/03/24 00:50:59;;;;;;;32.07;19.40;;;0.70;99.90;;;;;;4992105;28;20533;-74
2021/03/24 00:53:26;;;;;;;28.80;18.67;;;0.60;99.90;;;;;;4994145;28;20527;-74
2021/03/24 00:55:53;;;;;;;26.87;17.70;;;0.60;99.90;;;;;;4998764;28;20549;-73
2021/03/24 00:58:20;;;;;;;31.53;19.53;;;0.50;99.90;;;;;;4998694;28;20538;-74
2021/03/24 01:00:48;;;;;;;29.63;18.87;;;0.40;99.90;;;;;;4998393;28;20530;-74
2021/03/24 01:03:15;;;;;;;28.03;19.27;;;0.40;99.90;;;;;;4998111;28;20510;-74
2021/03/24 01:05:44;;;;;;;29.53;19.47;;;0.30;99.90;;;;;;4997641;28;20533;-74
2021/03/24 01:08:12;;;;;;;31.97;19.47;;;0.30;99.90;;;;;;4998079;28;20450;-74
2021/03/24 01:10:40;;;;;;;27.40;19.23;;;0.30;99.90;;;;;;4997846;28;20449;-74
2021/03/24 01:13:07;;;;;;;29.90;18.60;;;0.30;99.90;;;;;;4997841;28;20438;-76
2021/03/24 01:15:36;;;;;;;32.23;20.20;;;0.40;99.90;;;;;;4997857;28;20545;-73
2021/03/24 01:18:03;;;;;;;27.03;20.00;;;0.40;99.90;;;;;;4997858;28;20533;-74
2021/03/24 01:20:32;;;;;;;29.10;18.67;;;0.40;99.90;;;;;;4997771;28;20533;-73
2021/03/24 01:23:00;;;;;;;30.83;19.73;;;0.40;99.90;;;;;;4998085;28;20506;-74
2021/03/24 01:25:27;;;;;;;27.23;18.33;;;0.30;99.90;;;;;;4998284;28;21246;-74
2021/03/24 01:27:54;;;;;;;32.80;20.57;;;0.30;99.90;;;;;;4997792;28;20521;-74
2021/03/24 01:30:23;;;;;;;28.63;19.77;;;0.40;99.90;;;;;;4997991;28;20558;-75
2021/03/24 01:32:50;;;;;;;33.10;21.10;;;0.40;99.90;;;;;;4998004;28;20527;-74
2021/03/24 01:35:17;;;;;;;29.57;20.33;;;0.40;99.90;;;;;;4998154;28;20541;-74
2021/03/24 01:37:44;;;;;;;31.90;19.53;;;0.40;99.90;;;;;;4997796;28;20578;-74
2021/03/24 01:40:17;;;;;;;28.13;18.33;;;0.40;99.90;;;;;;4997634;28;20529;-74
2021/03/24 01:42:44;;;;;;;32.07;19.37;;;0.30;99.90;;;;;;4997873;28;20549;-73
2021/03/24 01:45:49;;;;;;;28.17;18.63;;;0.20;99.90;;;;;;4997802;28;20988;-73
2021/03/24 01:48:18;;;;;;;29.80;18.53;;;0.10;99.90;;;;;;4980638;28;20529;-74
2021/03/24 01:50:46;;;;;;;30.47;18.57;;;0.00;99.90;;;;;;4997354;28;20533;-73
2021/03/24 01:53:12;;;;;;;27.73;19.43;;;0.00;99.90;;;;;;4997442;28;20936;-74
2021/03/24 01:55:39;;;;;;;32.77;18.37;;;0.00;99.90;;;;;;4997694;28;20446;-74
2021/03/24 01:58:06;;;;;;;37.20;20.70;;;0.00;99.90;;;;;;4997788;28;20470;-74
2021/03/24 02:00:35;;;;;;;32.63;18.97;;;0.00;99.90;;;;;;4997363;28;20510;-74
2021/03/24 02:03:03;;;;;;;31.93;21.07;;;0.10;99.90;;;;;;4997522;28;20517;-74
2021/03/24 02:05:29;;;;;;;29.77;20.17;;;0.20;99.90;;;;;;4995607;28;20526;-74
2021/03/24 02:08:02;;;;;;;33.33;20.43;;;0.20;99.90;;;;;;5051556;23;20989;-68
2021/03/24 02:10:34;;;;;;;35.03;22.47;;;0.10;99.90;;;;;;5053674;28;20483;-68
2021/03/24 02:13:05;;;;;;;30.47;20.27;;;0.10;99.90;;;;;;5053472;28;20996;-68
2021/03/24 02:15:36;;;;;;;31.77;20.13;;;0.10;99.90;;;;;;5053841;28;20476;-68
2021/03/24 02:18:04;;;;;;;32.70;20.87;;;0.10;99.90;;;;;;5053443;28;20495;-68
2021/03/24 02:23:12;;;;;;;32.10;19.20;;;0.10;99.90;;;;;;5019000;28;20474;-68
2021/03/24 02:25:45;;;;;;;32.50;19.17;;;0.10;99.90;;;;;;5030309;28;20556;-68
2021/03/24 02:28:14;;;;;;;27.60;19.37;;;-0.10;99.90;;;;;;5034010;28;20508;-68
2021/03/24 02:30:44;;;;;;;29.37;19.63;;;-0.10;99.90;;;;;;5034797;28;20527;-68
2021/03/24 02:33:15;;;;;;;31.77;20.40;;;-0.10;99.90;;;;;;5053202;28;20450;-68
2021/03/24 02:35:45;;;;;;;31.60;19.43;;;-0.20;99.90;;;;;;5054051;28;20814;-67
2021/03/24 02:38:13;;;;;;;27.50;19.80;;;-0.30;99.90;;;;;;5053708;28;20448;-68
2021/03/24 02:40:41;;;;;;;30.33;20.10;;;-0.30;99.90;;;;;;5053182;28;20866;-68
2021/03/24 02:43:08;;;;;;;33.70;20.70;;;-0.30;99.90;;;;;;5053183;28;20555;-68
2021/03/24 02:45:40;;;;;;;30.50;20.27;;;-0.20;99.90;;;;;;5053102;28;20479;-68
2021/03/24 02:48:10;;;;;;;32.10;22.00;;;-0.20;99.90;;;;;;5052964;28;20804;-68
2021/03/24 02:50:38;;;;;;;33.20;20.03;;;-0.30;99.90;;;;;;5052463;28;20861;-68
2021/03/24 02:53:06;;;;;;;31.03;18.70;;;-0.30;99.90;;;;;;5052868;28;21019;-68
2021/03/24 02:55:34;;;;;;;31.20;19.13;;;-0.30;99.90;;;;;;5053118;28;20854;-68
2021/03/24 02:58:01;;;;;;;37.87;21.40;;;-0.30;99.90;;;;;;5053098;28;20891;-68
2021/03/24 03:00:28;;;;;;;37.07;21.43;;;-0.20;99.90;;;;;;5052491;28;20988;-68
2021/03/24 03:02:58;;;;;;;30.67;19.43;;;-0.20;99.90;;;;;;5052652;28;20563;-68
2021/03/24 03:05:28;;;;;;;29.80;19.37;;;-0.10;99.90;;;;;;5052701;28;20444;-68
2021/03/24 03:08:02;;;;;;;33.67;18.70;;;-0.10;99.90;;;;;;5052483;28;20483;-68
2021/03/24 03:10:34;;;;;;;28.50;18.40;;;-0.20;99.90;;;;;;5052418;28;20510;-68
2021/03/24 03:13:06;;;;;;;29.63;18.50;;;-0.30;99.90;;;;;;5052944;28;20476;-68
2021/03/24 03:15:36;;;;;;;27.77;17.47;;;-0.30;99.90;;;;;;5052474;28;20480;-67
2021/03/24 03:18:07;;;;;;;29.23;18.17;;;-0.40;99.90;;;;;;5051876;28;21000;-67
2021/03/24 03:20:40;;;;;;;28.13;16.70;;;-0.40;99.90;;;;;;5051793;28;20476;-68
2021/03/24 03:23:10;;;;;;;27.37;16.40;;;-0.50;99.90;;;;;;5052059;28;20480;-70
2021/03/24 03:25:39;;;;;;;31.23;18.83;;;-0.40;99.90;;;;;;5053564;28;20535;-67
2021/03/24 03:28:13;;;;;;;30.60;18.20;;;-0.50;99.90;;;;;;5052906;28;20476;-69
2021/03/24 03:30:42;;;;;;;30.30;19.17;;;-0.40;99.90;;;;;;5051565;28;20485;-68
2021/03/24 03:33:11;;;;;;;28.83;19.60;;;-0.40;99.90;;;;;;5051996;28;20531;-70
2021/03/24 03:35:40;;;;;;;28.13;18.50;;;-0.40;99.90;;;;;;5052144;28;20498;-69
2021/03/24 03:38:10;;;;;;;32.47;18.10;;;-0.40;99.90;;;;;;5051970;28;20527;-69
2021/03/24 03:40:37;;;;;;;31.73;19.43;;;-0.40;99.90;;;;;;5051537;28;20527;-69
2021/03/24 03:43:06;;;;;;;29.43;20.33;;;-0.40;99.90;;;;;;5052051;28;20566;-69
2021/03/24 03:45:36;;;;;;;33.40;19.20;;;-0.40;99.90;;;;;;5051437;28;20527;-69
2021/03/24 03:48:03;;;;;;;32.20;20.80;;;-0.40;99.90;;;;;;5051840;28;20876;-69
2021/03/24 03:50:31;;;;;;;34.23;20.23;;;-0.40;99.90;;;;;;5051352;28;20879;-69
2021/03/24 03:53:08;;;;;;;36.47;19.53;;;-0.40;99.90;;;;;;5051804;28;20530;-69
2021/03/24 03:55:44;;;;;;;29.43;20.00;;;-0.40;99.90;;;;;;5051525;28;20708;-69
2021/03/24 03:58:18;;;;;;;34.00;19.83;;;-0.40;99.90;;;;;;5051443;28;20955;-69
2021/03/24 04:00:53;;;;;;;33.63;19.73;;;-0.40;99.90;;;;;;5051298;28;20523;-69
2021/03/24 04:03:27;;;;;;;37.13;19.57;;;-0.50;99.90;;;;;;5052873;28;20567;-69
2021/03/24 04:05:58;;;;;;;34.50;20.50;;;-0.50;99.90;;;;;;5051807;28;20535;-69
2021/03/24 04:08:29;;;;;;;28.73;17.87;;;-0.50;99.90;;;;;;5051264;28;20475;-69
2021/03/24 04:10:57;;;;;;;29.30;19.00;;;-0.50;99.90;;;;;;5051100;28;20546;-69
2021/03/24 04:13:27;;;;;;;35.47;21.70;;;-0.60;99.90;;;;;;5051100;28;20482;-69
2021/03/24 04:15:56;;;;;;;28.37;19.30;;;-0.70;99.90;;;;;;5050988;28;20536;-69
2021/03/24 04:18:25;;;;;;;34.83;21.07;;;-0.60;99.90;;;;;;5051493;28;20531;-69
2021/03/24 04:20:53;;;;;;;34.37;21.17;;;-0.70;99.90;;;;;;5050554;28;20890;-68
2021/03/24 04:23:26;;;;;;;35.03;21.30;;;-0.70;99.90;;;;;;5051300;28;20558;-68
2021/03/24 04:25:58;;;;;;;35.30;21.20;;;-0.70;99.90;;;;;;5051361;28;20448;-68
2021/03/24 04:28:31;;;;;;;33.33;20.20;;;-0.60;99.90;;;;;;5050172;28;20532;-68
2021/03/24 04:31:01;;;;;;;32.33;19.73;;;-0.70;99.90;;;;;;5050917;28;20551;-68
2021/03/24 04:33:28;;;;;;;30.73;19.33;;;-0.60;99.90;;;;;;5050778;28;20472;-68
2021/03/24 04:35:58;;;;;;;26.23;20.23;;;-0.70;99.90;;;;;;5051209;28;20444;-68
2021/03/24 04:38:37;;;;;;;32.40;19.60;;;-0.70;99.90;;;;;;5050935;28;20888;-68
2021/03/24 04:41:09;;;;;;;34.03;21.60;;;-0.70;99.90;;;;;;5050757;28;20539;-69
2021/03/24 04:43:40;;;;;;;28.87;19.27;;;-0.70;99.90;;;;;;5050603;28;20567;-69
2021/03/24 04:46:12;;;;;;;30.50;18.47;;;-0.80;99.90;;;;;;5050691;28;20530;-69
2021/03/24 04:48:44;;;;;;;30.97;19.63;;;-0.90;99.90;;;;;;5050938;28;20532;-68
2021/03/24 04:51:13;;;;;;;28.60;20.10;;;-0.80;99.90;;;;;;5050417;28;20562;-69
2021/03/24 04:53:43;;;;;;;35.03;20.30;;;-0.80;99.90;;;;;;5050510;28;20528;-68
2021/03/24 04:56:12;;;;;;;28.00;19.93;;;-0.80;99.90;;;;;;5051001;28;20551;-69
2021/03/24 04:58:41;;;;;;;34.47;21.57;;;-0.80;99.90;;;;;;5050450;28;20536;-68
2021/03/24 05:01:14;;;;;;;31.60;19.03;;;-0.70;99.90;;;;;;5050460;28;20507;-69
2021/03/24 05:03:43;;;;;;;32.43;19.43;;;-0.70;99.90;;;;;;5050341;28;21027;-69
2021/03/24 05:06:18;;;;;;;33.80;21.27;;;-0.70;99.90;;;;;;5051008;28;20523;-69
2021/03/24 05:08:45;;;;;;;33.83;21.67;;;-0.70;99.90;;;;;;5050539;28;20482;-69
2021/03/24 05:11:18;;;;;;;33.70;21.50;;;-0.80;99.90;;;;;;5050360;28;20539;-69
2021/03/24 05:13:57;;;;;;;29.43;20.10;;;-0.70;99.90;;;;;;5050789;28;20527;-69
2021/03/24 05:16:29;;;;;;;32.87;20.80;;;-0.80;99.90;;;;;;5050752;28;20840;-69
2021/03/24 05:18:57;;;;;;;32.30;21.87;;;-0.80;99.90;;;;;;5050490;28;20615;-68
2021/03/24 05:21:51;;;;;;;39.70;21.43;;;-0.70;99.90;;;;;;5049808;28;20855;-68
2021/03/24 05:24:25;;;;;;;39.03;22.90;;;-0.70;99.90;;;;;;5050673;28;20534;-69
2021/03/24 05:26:58;;;;;;;35.17;21.43;;;-0.60;99.90;;;;;;5050812;28;20452;-68
2021/03/24 05:29:27;;;;;;;36.97;21.73;;;-0.70;99.90;;;;;;5050115;28;20450;-69
2021/03/24 05:31:56;;;;;;;31.63;22.60;;;-0.80;99.90;;;;;;5050383;28;20727;-69
2021/03/24 05:34:27;;;;;;;36.57;22.27;;;-0.70;99.90;;;;;;5050486;28;20466;-68
2021/03/24 05:36:54;;;;;;;34.37;21.83;;;-0.70;99.90;;;;;;5050301;28;20999;-69
2021/03/24 05:39:25;;;;;;;35.57;21.13;;;-0.70;99.90;;;;;;5051074;28;20518;-68
2021/03/24 05:42:00;;;;;;;30.57;21.37;;;-0.60;99.90;;;;;;5054121;28;20463;-69
2021/03/24 05:45:08;;;;;;;33.53;21.43;;;-0.60;99.90;;;;;;5054117;28;20479;-68
2021/03/24 05:47:53;;;;;;;37.67;22.50;;;-0.60;99.90;;;;;;4992238;28;20477;-68
2021/03/24 05:50:58;;;;;;;38.33;23.40;;;-0.60;99.90;;;;;;4991930;28;20589;-68
2021/03/24 05:53:56;;;;;;;38.40;21.97;;;-0.50;99.90;;;;;;5039526;28;20444;-68
2021/03/24 05:56:33;;;;;;;37.90;23.40;;;-0.50;99.90;;;;;;5043995;28;20475;-68
2021/03/24 05:59:14;;;;;;;36.53;23.20;;;-0.40;99.90;;;;;;5054939;28;20908;-68
2021/03/24 06:01:47;;;;;;;35.17;23.60;;;-0.30;99.90;;;;;;5055081;28;20897;-68
2021/03/24 06:04:27;;;;;;;32.73;22.17;;;-0.40;99.90;;;;;;5054108;28;21051;-69
2021/03/24 06:07:44;;;;;;;30.87;22.17;;;-0.20;99.90;;;;;;5032553;28;20445;-68
2021/03/24 06:10:45;;;;;;;34.93;21.77;;;-0.20;99.90;;;;;;5032416;28;20528;-68
2021/03/24 06:13:54;;;;;;;35.37;22.43;;;-0.10;99.90;;;;;;5033557;28;20519;-69
2021/03/24 06:16:55;;;;;;;33.13;22.33;;;0.00;99.90;;;;;;5033727;28;20520;-69
2021/03/24 06:19:37;;;;;;;37.03;24.50;;;0.10;99.90;;;;;;5003142;28;20884;-68
2021/03/24 06:22:16;;;;;;;40.50;25.27;;;0.20;99.90;;;;;;5033523;28;20924;-69
2021/03/24 06:24:52;;;;;;;35.57;24.77;;;0.40;99.90;;;;;;5033681;28;20519;-68
2021/03/24 06:27:44;;;;;;;37.50;23.13;;;0.50;99.90;;;;;;5033837;28;20540;-68
2021/03/24 06:30:38;;;;;;;34.87;21.70;;;0.60;99.90;;;;;;5019863;28;20549;-69
2021/03/24 06:33:38;;;;;;;35.33;21.37;;;0.70;99.90;;;;;;5030791;28;20550;-68
2021/03/24 06:36:41;;;;;;;34.80;23.77;;;0.80;99.90;;;;;;5033320;28;20468;-68
2021/03/24 06:39:37;;;;;;;32.10;22.70;;;0.90;99.90;;;;;;5033494;28;20484;-69
2021/03/24 06:49:11;;;;;;;30.90;21.20;;;1.20;99.90;;;;;;5031017;28;20416;-67
2021/03/24 06:52:18;;;;;;;31.60;22.20;;;1.40;99.90;;;;;;5032004;28;20523;-67
2021/03/24 06:55:36;;;;;;;34.80;23.00;;;1.50;99.90;;;;;;5032835;28;20523;-67
2021/03/24 06:58:35;;;;;;;36.17;24.47;;;1.60;99.90;;;;;;5032627;28;20996;-69
2021/03/24 07:01:37;;;;;;;32.50;22.80;;;1.70;99.90;;;;;;5032819;28;20479;-69
2021/03/24 07:04:46;;;;;;;33.80;23.03;;;1.80;99.90;;;;;;5032297;28;20515;-69
2021/03/24 07:07:39;;;;;;;31.83;23.27;;;1.90;99.90;;;;;;5032435;28;20604;-69
2021/03/24 07:10:16;;;;;;;31.33;21.90;;;2.10;99.90;;;;;;4996503;28;20446;-69
2021/03/24 07:13:05;;;;;;;33.00;23.37;;;2.20;99.90;;;;;;5032262;28;20547;-69
2021/03/24 07:15:36;;;;;;;31.53;22.67;;;2.30;99.90;;;;;;5060195;23;20543;-74
2021/03/24 07:18:41;;;;;;;32.17;22.70;;;2.40;99.90;;;;;;5036203;28;20939;-74
2021/03/24 07:21:42;;;;;;;33.10;22.60;;;2.50;99.90;;;;;;5035976;28;20518;-73
2021/03/24 07:24:37;;;;;;;33.23;21.70;;;2.60;99.90;;;;;;5069649;28;20521;-73
2021/03/24 07:27:39;;;;;;;30.03;22.50;;;2.80;99.90;;;;;;5072590;28;20847;-73
2021/03/24 07:30:21;;;;;;;33.70;22.53;;;2.90;99.90;;;;;;5039888;28;20461;-74
2021/03/24 07:32:54;;;;;;;29.43;21.10;;;3.00;99.90;;;;;;5072507;28;20661;-73
2021/03/24 07:35:34;;;;;;;31.40;22.10;;;3.30;99.90;;;;;;5072035;28;20471;-74
2021/03/24 07:38:31;;;;;;;25.97;21.30;;;3.60;99.90;;;;;;5072263;28;20458;-73
2021/03/24 07:41:22;;;;;;;28.43;22.63;;;3.60;99.90;;;;;;5017341;28;20523;-74
2021/03/24 07:44:02;;;;;;;29.67;22.03;;;3.80;99.90;;;;;;5071989;28;21073;-73
2021/03/24 07:47:11;;;;;;;30.70;22.17;;;3.90;99.90;;;;;;5072310;28;20490;-72
2021/03/24 07:50:00;;;;;;;29.63;21.47;;;4.00;99.90;;;;;;5072168;28;20446;-74
2021/03/24 07:52:56;;;;;;;29.47;20.77;;;4.10;99.90;;;;;;5071986;28;20451;-73
2021/03/24 07:55:32;;;;;;;29.23;20.47;;;4.30;99.90;;;;;;5072378;28;21064;-73
2021/03/24 07:58:25;;;;;;;27.57;19.87;;;4.30;99.90;;;;;;5072265;28;20529;-73
2021/03/24 08:00:57;;;;;;;27.50;22.70;;;4.40;99.90;;;;;;5071612;28;20522;-73
2021/03/24 08:03:31;;;;;;;26.20;20.03;;;4.50;99.90;;;;;;5071655;28;20511;-74
2021/03/24 08:06:14;;;;;;;25.53;20.10;;;4.60;99.90;;;;;;5071452;28;20550;-74
2021/03/24 08:09:06;;;;;;;29.27;21.83;;;4.70;99.90;;;;;;5071723;28;20530;-74
2021/03/24 08:11:40;;;;;;;28.30;20.70;;;4.90;99.90;;;;;;5042681;28;20876;-74
2021/03/24 08:14:27;;;;;;;23.27;19.10;;;5.00;99.90;;;;;;5048848;28;20456;-73
2021/03/24 08:17:02;;;;;;;25.30;20.60;;;5.10;99.90;;;;;;5051520;28;20927;-73
2021/03/24 08:20:02;;;;;;;25.87;19.80;;;5.30;99.90;;;;;;5049577;28;20447;-72
2021/03/24 08:22:43;;;;;;;28.97;21.60;;;5.50;99.90;;;;;;5051994;28;20969;-72
2021/03/24 08:25:24;;;;;;;28.27;19.73;;;5.70;99.90;;;;;;5052021;28;20558;-74
2021/03/24 08:28:00;;;;;;;25.33;19.07;;;5.80;99.90;;;;;;5052153;28;20547;-73
2021/03/24 08:30:31;;;;;;;25.70;19.90;;;6.00;99.90;;;;;;5054046;28;20452;-72
2021/03/24 08:33:16;;;;;;;23.77;17.60;;;6.20;99.90;;;;;;5054256;28;20694;-72
2021/03/24 08:36:00;;;;;;;21.33;18.00;;;6.50;99.90;;;;;;5050185;28;20887;-73
2021/03/24 08:38:54;;;;;;;29.30;20.23;;;6.70;99.90;;;;;;5050647;28;20950;-73
2021/03/24 08:41:50;;;;;;;23.50;18.10;;;6.80;99.90;;;;;;5051914;28;20476;-72
2021/03/24 08:44:23;;;;;;;20.33;17.37;;;7.00;99.90;;;;;;5051978;28;20524;-72
2021/03/24 08:46:55;;;;;;;24.03;17.27;;;7.30;99.90;;;;;;5050873;28;20491;-73
2021/03/24 08:49:25;;;;;;;21.90;17.73;;;7.50;99.90;;;;;;5037049;28;20445;-73
2021/03/24 08:52:03;;;;;;;25.47;17.40;;;7.50;99.90;;;;;;5036355;28;20476;-73
2021/03/24 08:55:08;;;;;;;22.43;16.80;;;7.70;99.90;;;;;;5035930;28;20546;-74
2021/03/24 08:58:03;;;;;;;24.07;17.00;;;8.10;99.90;;;;;;5053854;28;20475;-74
2021/03/24 09:01:07;;;;;;;21.23;15.77;;;8.50;99.90;;;;;;5043652;28;20450;-74
2021/03/24 09:04:05;;;;;;;27.33;18.90;;;8.80;99.90;;;;;;5032526;28;20534;-73
2021/03/24 09:06:40;;;;;;;24.03;18.13;;;9.20;99.90;;;;;;5036298;28;20475;-74
2021/03/24 09:09:20;;;;;;;20.57;15.40;;;9.50;99.90;;;;;;5044190;28;20464;-73
2021/03/24 09:11:57;;;;;;;19.13;15.17;;;9.50;99.90;;;;;;5052014;28;20866;-74
2021/03/24 09:14:32;;;;;;;20.00;16.17;;;9.60;99.90;;;;;;5052420;28;20467;-73
2021/03/24 09:17:29;;;;;;;19.57;15.73;;;9.80;99.90;;;;;;5052900;28;20446;-74
2021/03/24 09:20:25;;;;;;;20.17;15.87;;;10.20;99.90;;;;;;5043517;28;20469;-73
2021/03/24 09:23:09;;;;;;;18.27;14.63;;;10.60;99.90;;;;;;4981554;28;20506;-73
2021/03/24 09:25:46;;;;;;;18.83;15.80;;;10.90;99.90;;;;;;5048190;28;20490;-74
2021/03/24 09:28:30;;;;;;;23.10;15.90;;;11.50;99.90;;;;;;5055963;28;20435;-74
2021/03/24 09:31:21;;;;;;;17.13;14.23;;;12.10;99.90;;;;;;5055346;28;20462;-74
2021/03/24 09:33:54;;;;;;;20.97;15.53;;;12.40;99.90;;;;;;5054802;28;20519;-74
2021/03/24 09:36:55;;;;;;;20.33;15.67;;;12.20;98.90;;;;;;5053745;28;20439;-73
2021/03/24 09:39:26;;;;;;;17.60;13.87;;;11.90;99.50;;;;;;5053268;28;20886;-73
2021/03/24 09:41:59;;;;;;;20.93;13.93;;;11.80;98.60;;;;;;5050689;28;20925;-73
2021/03/24 09:44:37;;;;;;;16.83;15.00;;;12.00;99.40;;;;;;5051310;28;20479;-73
2021/03/24 09:47:18;;;;;;;19.00;16.03;;;12.30;99.60;;;;;;5061784;28;20450;-73
2021/03/24 09:49:53;;;;;;;19.50;15.90;;;12.60;98.60;;;;;;5053496;28;20471;-73
2021/03/24 09:52:28;;;;;;;18.90;14.97;;;12.50;97.20;;;;;;5054145;28;20573;-73
2021/03/24 09:55:14;;;;;;;18.60;14.93;;;12.40;98.40;;;;;;5055360;28;20507;-73
2021/03/24 09:58:27;;;;;;;17.30;15.07;;;12.80;98.40;;;;;;5058381;28;20489;-72
2021/03/24 10:01:04;;;;;;;18.07;14.43;;;13.20;96.90;;;;;;5057382;28;20448;-74
2021/03/24 10:03:39;;;;;;;17.87;14.20;;;13.70;97.20;;;;;;5057056;28;20483;-72
2021/03/24 10:06:10;;;;;;;19.27;15.80;;;13.60;96.00;;;;;;5054548;28;20505;-73
2021/03/24 10:08:42;;;;;;;20.27;14.67;;;13.20;96.80;;;;;;5046532;28;20536;-73
2021/03/24 10:11:16;;;;;;;15.73;13.17;;;13.50;96.60;;;;;;5039890;28;20440;-74
2021/03/24 10:13:47;;;;;;;16.70;14.80;;;14.00;95.60;;;;;;5054627;28;20463;-74
2021/03/24 10:16:18;;;;;;;17.30;14.00;;;14.10;94.40;;;;;;5055878;28;20527;-74
2021/03/24 10:18:53;;;;;;;16.20;13.70;;;14.30;94.70;;;;;;5055081;28;20822;-74
2021/03/24 10:21:25;;;;;;;15.70;14.00;;;14.50;94.70;;;;;;5049229;28;20923;-74
2021/03/24 10:23:55;;;;;;;15.33;13.77;;;14.70;94.10;;;;;;5054564;28;20479;-73
2021/03/24 10:26:24;;;;;;;20.60;14.27;;;14.90;93.20;;;;;;5052347;28;20444;-73
2021/03/24 10:28:53;;;;;;;16.37;14.63;;;15.00;92.50;;;;;;5053062;28;20768;-74
2021/03/24 10:31:24;;;;;;;15.40;13.30;;;15.40;92.80;;;;;;5054413;28;20518;-74
2021/03/24 10:33:56;;;;;;;16.73;13.20;;;15.80;92.10;;;;;;5052732;28;20440;-74
2021/03/24 10:36:29;;;;;;;15.67;13.07;;;15.00;90.90;;;;;;5051549;28;20884;-74
2021/03/24 10:39:04;;;;;;;15.53;11.23;;;14.50;93.00;;;;;;5044131;28;20441;-73
2021/03/24 10:41:55;;;;;;;14.63;11.90;;;14.90;92.90;;;;;;5050553;28;20455;-72
2021/03/24 10:44:28;;;;;;;13.33;11.93;;;15.30;92.30;;;;;;5053098;28;20511;-72
2021/03/24 10:47:30;;;;;;;13.83;11.53;;;15.50;91.10;;;;;;5053729;28;20882;-72
2021/03/24 10:50:13;;;;;;;16.60;12.30;;;16.10;91.10;;;;;;4972090;28;20478;-72
2021/03/24 10:52:42;;;;;;;14.00;11.70;;;16.10;90.10;;;;;;5046331;28;20451;-72
2021/03/24 10:55:16;;;;;;;13.77;11.67;;;15.80;91.00;;;;;;5053780;28;20996;-72
2021/03/24 10:57:53;;;;;;;12.60;10.50;;;15.60;90.20;;;;;;5053792;28;20443;-72
2021/03/24 11:00:25;;;;;;;19.23;13.43;;;15.40;90.50;;;;;;5054744;28;20934;-73
2021/03/24 11:03:04;;;;;;;13.57;12.00;;;15.10;90.80;;;;;;5054920;28;20440;-72
2021/03/24 11:05:37;;;;;;;15.90;11.73;;;15.00;90.60;;;;;;5054713;28;20459;-72
2021/03/24 11:08:17;;;;;;;14.10;10.17;;;14.70;90.40;;;;;;5054473;28;20471;-73
2021/03/24 11:10:48;;;;;;;15.63;12.80;;;15.00;89.20;;;;;;5053553;28;20562;-74
2021/03/24 11:13:36;;;;;;;15.37;13.77;;;15.80;88.90;;;;;;5052579;28;20446;-73
2021/03/24 11:16:27;;;;;;;17.00;13.40;;;16.10;88.50;;;;;;5046001;28;20502;-73
2021/03/24 11:18:57;;;;;;;14.83;13.23;;;16.90;89.40;;;;;;5033589;28;20531;-73
2021/03/24 11:21:34;;;;;;;16.60;13.70;;;17.50;86.40;;;;;;5032917;28;20484;-74
2021/03/24 11:24:14;;;;;;;16.10;12.90;;;17.60;83.80;;;;;;5033015;28;20507;-73
2021/03/24 11:27:06;;;;;;;15.53;13.90;;;17.80;83.10;;;;;;5035181;28;20928;-74
2021/03/24 11:29:36;;;;;;;16.47;14.00;;;18.60;80.90;;;;;;5035252;28;20472;-74
2021/03/24 11:32:12;;;;;;;17.70;13.97;;;18.70;79.50;;;;;;5035433;28;20447;-74
2021/03/24 11:34:47;;;;;;;18.40;14.17;;;18.20;77.70;;;;;;5046212;28;20491;-74
2021/03/24 11:37:34;;;;;;;15.70;13.50;;;17.70;78.60;;;;;;5043524;28;20858;-74
2021/03/24 11:40:13;;;;;;;18.67;15.20;;;17.60;78.40;;;;;;5045146;28;20472;-73
2021/03/24 11:42:50;;;;;;;15.83;13.80;;;17.50;79.30;;;;;;5041611;28;20527;-73
2021/03/24 11:45:19;;;;;;;20.03;14.00;;;17.80;82.00;;;;;;5048265;28;20525;-72
2021/03/24 11:48:01;;;;;;;16.47;14.70;;;18.10;78.60;;;;;;5051250;28;20443;-74
2021/03/24 11:50:32;;;;;;;18.77;14.90;;;18.20;77.50;;;;;;5054825;28;20463;-73
2021/03/24 11:53:07;;;;;;;20.63;16.00;;;18.50;77.80;;;;;;5055771;28;20526;-72
2021/03/24 11:55:47;;;;;;;17.93;15.63;;;19.40;77.00;;;;;;5057147;28;20498;-74
2021/03/24 11:58:37;;;;;;;16.37;14.53;;;20.30;74.80;;;;;;5056767;28;20873;-74
2021/03/24 12:01:11;;;;;;;15.53;13.63;;;20.40;71.90;;;;;;5055464;28;20444;-75
2021/03/24 12:03:55;;;;;;;18.80;16.23;;;19.70;69.60;;;;;;5043958;28;20560;-73
2021/03/24 12:06:34;;;;;;;18.23;14.53;;;19.40;70.90;;;;;;5035562;28;20445;-73
2021/03/24 12:09:04;;;;;;;18.83;16.57;;;19.70;72.50;;;;;;5034222;28;20895;-72
2021/03/24 12:11:34;;;;;;;17.20;14.27;;;19.90;70.80;;;;;;5033671;28;20485;-73
2021/03/24 12:14:11;;;;;;;15.07;12.67;;;19.50;69.80;;;;;;5034397;28;20491;-73
2021/03/24 12:16:47;;;;;;;17.67;14.30;;;20.10;72.40;;;;;;5034026;28;20940;-72
2021/03/24 12:19:30;;;;;;;16.03;13.60;;;21.10;70.00;;;;;;5030559;28;20476;-74
2021/03/24 12:21:59;;;;;;;16.77;15.00;;;20.80;65.50;;;;;;5059355;23;20492;-69
2021/03/24 12:24:29;;;;;;;17.27;14.33;;;21.30;64.20;;;;;;5037649;28;20565;-69
2021/03/24 12:27:14;;;;;;;15.03;13.47;;;21.30;63.80;;;;;;5030961;28;20445;-69
2021/03/24 12:29:42;;;;;;;17.83;14.57;;;22.30;62.50;;;;;;5030745;28;20463;-68
2021/03/24 12:32:21;;;;;;;19.17;14.90;;;21.50;60.30;;;;;;5031268;28;20472;-69
2021/03/24 12:34:48;;;;;;;14.63;13.13;;;21.50;61.80;;;;;;5050315;23;20483;-70
2021/03/24 12:37:34;;;;;;;18.47;15.23;;;22.20;60.50;;;;;;5072109;28;20467;-70
2021/03/24 12:40:08;;;;;;;16.83;13.37;;;22.10;60.70;;;;;;5071593;28;21144;-71
2021/03/24 12:42:36;;;;;;;18.10;14.87;;;23.30;61.90;;;;;;5071656;28;20470;-72
2021/03/24 12:45:29;;;;;;;17.20;15.40;;;24.00;57.80;;;;;;5071509;28;20529;-70
2021/03/24 12:48:09;;;;;;;14.93;13.03;;;23.30;56.40;;;;;;5071902;28;20474;-70
2021/03/24 12:50:41;;;;;;;16.83;15.07;;;22.70;56.40;;;;;;5067483;28;20994;-67
2021/03/24 12:53:26;;;;;;;17.10;14.40;;;22.80;56.40;;;;;;5069615;28;20443;-68
2021/03/24 12:56:10;;;;;;;13.53;12.10;;;23.30;57.50;;;;;;5069899;28;20498;-69
2021/03/24 12:58:45;;;;;;;14.40;12.90;;;22.60;53.80;;;;;;5070069;28;20510;-68
2021/03/24 13:01:24;;;;;;;15.50;11.90;;;21.20;56.70;;;;;;5068875;28;21041;-69
2021/03/24 13:04:32;;;;;;;15.37;13.37;;;21.80;57.10;;;;;;5070201;28;20479;-69
2021/03/24 13:07:18;;;;;;;17.03;15.10;;;22.50;56.80;;;;;;5074009;28;20960;-69
2021/03/24 13:09:51;;;;;;;16.47;14.80;;;22.80;56.30;;;;;;5074784;28;20448;-69
2021/03/24 13:12:24;;;;;;;15.87;14.13;;;22.20;55.80;;;;;;5069147;28;20969;-69
2021/03/24 13:15:05;;;;;;;19.43;13.97;;;21.90;57.40;;;;;;5084828;28;20466;-69
2021/03/24 13:17:42;;;;;;;15.67;12.57;;;23.30;58.30;;;;;;5081077;28;20810;-70
2021/03/24 13:20:22;;;;;;;15.00;13.53;;;24.20;56.90;;;;;;5079815;28;20443;-69
2021/03/24 13:22:58;;;;;;;15.23;13.73;;;25.00;55.10;;;;;;5074549;28;20467;-70
2021/03/24 13:25:35;;;;;;;16.53;14.93;;;25.60;53.10;;;;;;5069409;28;20480;-69
2021/03/24 13:28:17;;;;;;;17.00;15.30;;;25.80;51.20;;;;;;5075964;28;20955;-70
2021/03/24 13:30:54;;;;;;;16.07;14.30;;;25.90;51.90;;;;;;5072230;28;20447;-69